Flight Track Log - Related Links

Times and Time Zones

All times are in EDT time to prevent confusion due to time zone crossing. See the UAL1809 flight status page for this flight to view local times or setup timezone preferences in your user account.

Time Position Orientation Groundspeed Altitude Reporting Facility
EDT Latitude Longitude Course Direction KTS MPH feet Rate Location/Type
Wed 06:23:42 PM 42.2017 -83.3583 229° Southwest 163 188 1,200  Level Cleveland Center
Wed 06:24:37 PM 42.1756 -83.3992 229° Southwest 196 226 2,900 2,103 Climbing Cleveland Center
Wed 06:25:39 PM 42.1342 -83.4672 231° Southwest 231 266 5,300 2,341 Climbing Cleveland Center
Wed 06:26:40 PM 42.1050 -83.5472 244° Southwest 279 321 7,700 2,311 Climbing Cleveland Center
Wed 06:27:41 PM 42.1444 -83.6358 301° West 291 335 10,000 1,350 Climbing Cleveland Center
Wed 06:28:40 PM 42.1942 -83.7306 305° West 311 358 10,400 1,513 Climbing Cleveland Center
Wed 06:29:40 PM 42.2475 -83.8344 305° West 324 373 13,000 1,884 Climbing Cleveland Center
Wed 06:30:41 PM 42.2928 -83.9294 303° West 329 379 14,200 2,281 Climbing Cleveland Center
Wed 06:31:41 PM 42.3458 -84.0361 304° West 339 390 17,600 3,580 Climbing Cleveland Center
Wed 06:32:40 PM 42.3903 -84.1453 299° West 339 390 21,300 2,200 Climbing Cleveland Center
Wed 06:33:41 PM 42.4372 -84.2522 301° West 334 384 22,000 350 Climbing Cleveland Center
Wed 06:34:40 PM 42.4817 -84.3589 299° West 334 384 22,000  Level Cleveland Center
Wed 06:35:37 PM 42.5294 -84.4658 301° West 326 375 22,000  Level Chicago Center
Wed 06:36:39 PM 42.5728 -84.5733 299° West 326 375 22,000  Level Chicago Center
Wed 06:37:41 PM 42.6189 -84.6800 300° West 328 377 22,000  Level Chicago Center
Wed 06:38:43 PM 42.6619 -84.7872 299° West 326 375 22,000  Level Chicago Center
Wed 06:39:45 PM 42.7069 -84.8950 300° West 329 379 22,000  Level Chicago Center
Wed 06:40:47 PM 42.7511 -85.0014 300° West 327 376 22,000  Level Chicago Center
Wed 06:41:49 PM 42.8039 -85.1308 299° West 326 375 22,000  Level Chicago Center
Wed 06:42:51 PM 42.8472 -85.2392 299° West 327 376 22,000  Level Chicago Center
Wed 06:43:54 PM 42.8914 -85.3458 300° West 327 376 22,000  Level Chicago Center
Wed 06:44:56 PM 42.9347 -85.4531 299° West 326 375 22,000  Level Chicago Center
Wed 06:45:58 PM 42.9778 -85.5600 299° West 325 374 22,000  Level Chicago Center
Wed 06:47:00 PM 43.0283 -85.6864 299° West 318 366 22,000  Level Chicago Center
Wed 06:48:02 PM 43.0711 -85.7908 299° West 319 367 22,000  Level Chicago Center
Wed 06:49:04 PM 43.1136 -85.8953 299° West 321 369 22,000  Level Chicago Center
Wed 06:50:06 PM 43.1547 -86.0006 298° West 323 372 22,000  Level Chicago Center
Wed 06:51:08 PM 43.1686 -86.1394 278° West 318 366 22,000  Level Chicago Center
Wed 06:52:10 PM 43.1669 -86.2581 269° West 316 364 22,000 -336 Level Chicago Center
Wed 06:53:13 PM 43.1639 -86.3739 268° West 307 353 21,300 -816 Descending Chicago Center
Wed 06:54:15 PM 43.1625 -86.4883 269° West 303 349 20,300 -968 Descending Chicago Center
Wed 06:55:17 PM 43.1606 -86.6025 269° West 302 348 19,300 -1,065 Descending Chicago Center
Wed 06:56:19 PM 43.1581 -86.7369 269° West 296 341 18,100 -1,306 Descending Chicago Center
Wed 06:57:21 PM 43.1558 -86.8461 268° West 288 331 16,600 -1,500 Descending Chicago Center
Wed 06:58:23 PM 43.1536 -86.9553 268° West 288 331 15,000 -1,512 Descending Chicago Center
Wed 06:59:28 PM 43.1456 -87.0642 264° West 288 331 13,400 -1,843 Descending Chicago Center
Wed 07:00:30 PM 43.1139 -87.1881 251° West 288 331 11,100 -2,016 Descending Chicago Center
Wed 07:01:33 PM 43.0911 -87.2881 253° West 281 323 9,200 -1,680 Descending Chicago Center
Wed 07:02:35 PM 43.0644 -87.3906 250° West 276 318 7,600 -1,597 Descending Chicago Center
Wed 07:03:37 PM 43.0428 -87.4828 252° West 261 300 5,900 -1,258 Descending Chicago Center
Wed 07:04:39 PM 43.0228 -87.5706 253° West 247 284 5,000 -1,161 Descending Chicago Center
Wed 07:05:41 PM 43.0039 -87.6467 251° West 220 253 3,500 -968 Descending Chicago Center
Wed 07:06:43 PM 42.9850 -87.7244 252° West 190 219 3,000 -581 Descending Chicago Center
Wed 07:07:45 PM 42.9700 -87.7833 251° West 168 193 2,300 -726 Descending Chicago Center
Wed 07:08:47 PM 42.9581 -87.8378 253° West 159 183 1,500 -677 Descending Chicago Center
Wed 07:09:49 PM 42.9450 -87.8883 251° West 155 178 900 -581 Descending Chicago Center
Wed 07:11:00 PM 42.9333 -87.8833 236° Southwest  Level FlightAware Approximate

Login

Don't have an account? Register now (free) for customized features, flight alerts, and more!